Time;durP1;ratioP1;P1;durP2;ratioP2;P2;SDS_P1;SDS_P2;PMS_P1;PMS_P2;Temp;Humidity;BMP_temperature;BMP_pressure;BME280_temperature;BME280_humidity;BME280_pressure;Samples;Min_cycle;Max_cycle;Signal;HPM_P1;HPM_P2
2022/05/30 00:02:07;;;;;;;;;1.50;1.50;21.50;99.90;;;;;;5014883;28;8868;-60
2022/05/30 00:04:39;;;;;;;;;2.75;2.00;21.50;99.90;;;;;;5016198;28;8829;-60
2022/05/30 00:07:09;;;;;;;;;2.75;1.00;21.60;99.90;;;;;;5018254;28;8901;-59
2022/05/30 00:09:41;;;;;;;;;2.00;1.00;21.60;99.90;;;;;;5003406;28;8845;-60
2022/05/30 00:12:12;;;;;;;;;3.00;1.75;21.70;99.90;;;;;;5012363;28;8877;-61
2022/05/30 00:14:41;;;;;;;;;2.75;1.00;21.80;99.90;;;;;;5019187;28;8941;-60
2022/05/30 00:17:12;;;;;;;;;2.00;2.00;21.90;99.90;;;;;;5016703;28;8896;-61
2022/05/30 00:19:42;;;;;;;;;1.00;1.00;21.90;99.90;;;;;;5015576;28;9183;-60
2022/05/30 00:22:14;;;;;;;;;3.00;3.00;22.00;99.90;;;;;;5012847;28;8829;-59
2022/05/30 00:24:46;;;;;;;;;1.00;1.00;22.00;99.90;;;;;;5015985;28;8892;-60
2022/05/30 00:27:16;;;;;;;;;0.00;0.00;22.00;99.90;;;;;;5017281;28;8846;-60
2022/05/30 00:29:47;;;;;;;;;0.00;0.00;22.00;99.90;;;;;;5008938;28;9647;-59
2022/05/30 00:32:18;;;;;;;;;1.50;1.00;21.70;99.90;;;;;;5013772;28;9004;-61
2022/05/30 00:34:48;;;;;;;;;1.00;1.00;21.70;99.90;;;;;;5003842;28;8885;-59
2022/05/30 00:37:19;;;;;;;;;3.00;3.00;21.80;99.90;;;;;;5003760;28;8873;-61
2022/05/30 00:39:50;;;;;;;;;2.00;1.00;21.80;99.90;;;;;;5012933;28;8860;-60
2022/05/30 00:42:24;;;;;;;;;1.75;1.75;21.70;99.90;;;;;;5011674;28;8852;-59
2022/05/30 00:44:54;;;;;;;;;0.00;0.00;21.70;99.90;;;;;;5017059;28;8830;-59
2022/05/30 00:47:25;;;;;;;;;1.25;1.25;21.60;99.90;;;;;;5024928;28;8889;-59
2022/05/30 00:49:56;;;;;;;;;2.50;1.00;21.70;99.90;;;;;;5025525;28;8984;-59
2022/05/30 00:52:41;;;;;;;;;2.00;2.00;21.70;99.90;;;;;;5017233;28;8854;-60
2022/05/30 00:55:21;;;;;;;;;1.75;1.75;21.60;99.90;;;;;;5017373;28;8841;-59
2022/05/30 00:57:51;;;;;;;;;4.25;2.00;21.50;99.90;;;;;;5019637;28;8957;-64
2022/05/30 01:00:26;;;;;;;;;1.00;1.00;21.50;99.90;;;;;;5012552;28;8859;-60
2022/05/30 01:08:35;;;;;;;;;2.50;2.50;21.30;99.90;;;;;;5016052;28;8841;-61
2022/05/30 01:11:05;;;;;;;;;1.00;1.00;21.10;99.90;;;;;;5020472;28;8845;-61
2022/05/30 01:13:38;;;;;;;;;4.00;4.00;21.00;99.90;;;;;;5018595;28;8853;-60
2022/05/30 01:16:10;;;;;;;;;2.33;2.33;21.10;99.90;;;;;;5014642;28;9732;-61
2022/05/30 01:18:52;;;;;;;;;3.00;3.00;21.00;99.90;;;;;;5028670;28;9028;-63
2022/05/30 01:21:39;;;;;;;;;1.00;1.00;21.00;99.90;;;;;;5020162;28;9103;-61
2022/05/30 01:24:16;;;;;;;;;1.00;1.00;21.00;99.90;;;;;;5012804;28;8854;-62
2022/05/30 01:27:25;;;;;;;;;2.00;2.00;20.90;99.90;;;;;;4975415;28;8919;-64
2022/05/30 01:30:08;;;;;;;;;3.33;3.00;20.70;99.90;;;;;;5015256;28;9004;-61
2022/05/30 01:32:39;;;;;;;;;3.00;3.00;20.80;99.90;;;;;;5013665;28;8939;-60
2022/05/30 01:35:12;;;;;;;;;3.67;2.33;20.70;99.90;;;;;;5016543;28;9095;-61
2022/05/30 01:37:44;;;;;;;;;2.00;2.00;20.50;99.90;;;;;;5019419;28;9129;-61
2022/05/30 01:40:16;;;;;;;;;1.00;1.00;20.50;99.90;;;;;;5018283;28;9227;-60
2022/05/30 01:42:45;;;;;;;;;1.67;1.67;20.60;99.90;;;;;;5014945;28;8996;-60
2022/05/30 01:45:16;;;;;;;;;3.00;3.00;20.70;99.90;;;;;;5014959;28;9224;-60
2022/05/30 01:47:48;;;;;;;;;2.00;2.00;20.50;99.90;;;;;;5027686;28;9258;-60
2022/05/30 01:50:18;;;;;;;;;3.67;2.00;20.40;99.90;;;;;;5018236;28;9250;-62
2022/05/30 01:52:48;;;;;;;;;0.67;0.67;20.50;99.90;;;;;;5016345;28;9028;-61
2022/05/30 01:55:29;;;;;;;;;1.00;1.00;20.50;99.90;;;;;;5017614;28;9025;-61
2022/05/30 01:58:06;;;;;;;;;4.00;2.33;20.40;99.90;;;;;;4996971;28;9250;-61
2022/05/30 02:00:37;;;;;;;;;2.67;1.00;20.40;99.90;;;;;;5018339;28;9176;-61
2022/05/30 02:03:06;;;;;;;;;3.00;3.00;20.30;99.90;;;;;;5014460;28;9201;-60
2022/05/30 02:05:37;;;;;;;;;1.00;1.00;20.20;99.90;;;;;;5018741;28;9185;-60
2022/05/30 02:08:07;;;;;;;;;3.00;3.00;20.20;99.90;;;;;;5015054;28;9234;-60
2022/05/30 02:10:38;;;;;;;;;2.67;2.00;20.20;99.90;;;;;;5016413;28;9172;-62
2022/05/30 02:13:10;;;;;;;;;2.33;2.33;20.00;99.90;;;;;;5015544;28;9265;-62
2022/05/30 02:19:09;;;;;;;;;1.00;1.00;19.90;99.90;;;;;;5027081;28;9204;-63
2022/05/30 02:21:40;;;;;;;;;3.00;3.00;19.80;99.90;;;;;;4996382;28;9542;-63
2022/05/30 02:24:15;;;;;;;;;4.00;4.00;19.70;99.90;;;;;;5011526;28;9372;-62
2022/05/30 02:26:45;;;;;;;;;3.00;3.00;19.60;99.90;;;;;;5014168;28;9518;-61
2022/05/30 02:29:19;;;;;;;;;3.00;3.00;19.50;99.90;;;;;;5018344;28;9354;-60
2022/05/30 02:31:57;;;;;;;;;3.00;3.00;19.30;99.90;;;;;;5016893;28;9811;-61
2022/05/30 02:37:17;;;;;;;;;1.50;1.00;19.40;99.90;;;;;;5027051;28;9699;-61
2022/05/30 02:39:49;;;;;;;;;5.00;3.00;19.30;99.90;;;;;;4999670;28;9792;-61
2022/05/30 02:42:37;;;;;;;;;4.00;3.00;19.30;99.90;;;;;;5021400;28;9645;-61
2022/05/30 02:45:07;;;;;;;;;3.67;2.00;19.30;99.90;;;;;;5015895;28;9469;-60
2022/05/30 02:47:37;;;;;;;;;5.00;5.00;19.30;99.90;;;;;;5010271;28;9623;-61
2022/05/30 02:50:11;;;;;;;;;7.00;4.00;19.30;99.90;;;;;;5016473;28;9584;-61
2022/05/30 02:52:41;;;;;;;;;2.00;2.00;19.20;99.90;;;;;;5001564;28;9475;-60
2022/05/30 02:55:19;;;;;;;;;4.67;3.33;19.00;99.90;;;;;;5006003;28;9669;-60
2022/05/30 02:57:51;;;;;;;;;3.00;3.00;19.10;99.90;;;;;;5005098;28;9594;-61
2022/05/30 03:00:26;;;;;;;;;3.00;3.00;19.00;99.90;;;;;;5020918;28;9756;-60
2022/05/30 03:03:03;;;;;;;;;4.25;3.00;18.90;99.90;;;;;;5025707;28;9976;-60
2022/05/30 03:05:33;;;;;;;;;3.50;3.50;18.80;99.90;;;;;;5015045;28;10631;-62
2022/05/30 03:08:07;;;;;;;;;4.00;4.00;18.80;99.90;;;;;;5021039;28;10370;-58
2022/05/30 03:10:56;;;;;;;;;3.50;3.50;18.80;99.90;;;;;;5020277;28;9875;-59
2022/05/30 03:13:26;;;;;;;;;3.50;2.25;18.80;99.90;;;;;;4993342;28;9876;-59
2022/05/30 03:15:58;;;;;;;;;3.00;3.00;18.80;99.90;;;;;;5029352;28;10087;-59
2022/05/30 03:18:28;;;;;;;;;2.75;2.75;18.80;99.90;;;;;;4996846;28;9950;-59
2022/05/30 03:20:59;;;;;;;;;3.50;3.50;18.80;99.90;;;;;;5019993;28;9875;-60
2022/05/30 03:23:30;;;;;;;;;4.25;3.75;18.80;99.90;;;;;;5009684;28;10128;-59
2022/05/30 03:26:08;;;;;;;;;3.25;3.25;18.80;99.90;;;;;;5015225;28;10082;-60
2022/05/30 03:28:38;;;;;;;;;4.50;4.50;18.70;99.90;;;;;;5012579;28;10049;-60
2022/05/30 03:31:10;;;;;;;;;6.75;3.75;18.60;99.90;;;;;;5015110;28;9853;-60
2022/05/30 03:33:44;;;;;;;;;5.50;4.50;18.60;99.90;;;;;;5011265;28;10207;-61
2022/05/30 03:36:20;;;;;;;;;3.75;2.50;18.60;99.90;;;;;;5001240;28;10072;-61
2022/05/30 03:39:08;;;;;;;;;2.25;1.75;18.60;99.90;;;;;;5010842;28;10013;-60
2022/05/30 03:41:57;;;;;;;;;2.75;2.50;18.60;99.90;;;;;;5028634;28;10119;-60
2022/05/30 03:44:46;;;;;;;;;3.75;3.75;18.50;99.90;;;;;;5015468;28;10547;-59
2022/05/30 03:47:18;;;;;;;;;6.25;2.25;18.40;99.90;;;;;;5014677;28;10130;-59
2022/05/30 03:49:49;;;;;;;;;3.25;3.25;18.40;99.90;;;;;;5010184;28;10516;-61
2022/05/30 03:52:19;;;;;;;;;3.75;3.00;18.30;99.90;;;;;;5011653;28;10486;-60
2022/05/30 03:54:49;;;;;;;;;3.25;2.75;18.40;99.90;;;;;;5008671;28;10411;-60
2022/05/30 03:57:20;;;;;;;;;3.75;3.75;18.40;99.90;;;;;;5011510;28;10607;-63
2022/05/30 03:59:49;;;;;;;;;4.25;3.00;18.40;99.90;;;;;;5003137;28;11847;-62
2022/05/30 04:02:20;;;;;;;;;4.50;3.25;18.30;99.90;;;;;;5030792;28;10349;-60
2022/05/30 04:04:51;;;;;;;;;2.50;2.50;18.30;99.90;;;;;;5015914;28;10411;-61
2022/05/30 04:07:22;;;;;;;;;3.50;2.25;18.30;99.90;;;;;;5014214;28;10272;-60
2022/05/30 04:10:18;;;;;;;;;4.50;4.50;18.20;99.90;;;;;;5009207;28;10357;-61
2022/05/30 04:13:09;;;;;;;;;6.50;5.25;18.20;99.90;;;;;;5014698;28;10485;-60
2022/05/30 04:15:57;;;;;;;;;4.25;4.00;18.20;99.90;;;;;;5014646;28;10287;-63
2022/05/30 04:18:32;;;;;;;;;7.00;5.50;18.10;99.90;;;;;;5010961;28;10699;-64
2022/05/30 04:21:03;;;;;;;;;7.50;5.75;18.10;99.90;;;;;;5014325;28;11600;-65
2022/05/30 04:23:34;;;;;;;;;3.75;3.75;18.10;99.90;;;;;;5013204;28;10916;-63
2022/05/30 04:26:11;;;;;;;;;3.75;3.00;18.10;99.90;;;;;;5011891;28;10659;-63
2022/05/30 04:28:43;;;;;;;;;4.75;4.75;18.00;99.90;;;;;;5008508;28;10403;-62
2022/05/30 04:31:32;;;;;;;;;5.50;5.50;17.90;99.90;;;;;;5017914;28;10227;-66
2022/05/30 04:34:03;;;;;;;;;3.50;3.50;18.00;99.90;;;;;;4990148;28;10221;-61
2022/05/30 04:36:33;;;;;;;;;3.00;3.00;18.00;99.90;;;;;;5011063;28;10961;-62
2022/05/30 04:39:07;;;;;;;;;3.75;3.75;18.00;99.90;;;;;;5005385;28;10204;-60
2022/05/30 04:41:57;;;;;;;;;4.25;4.25;17.90;99.90;;;;;;5005706;28;10169;-59
2022/05/30 04:44:37;;;;;;;;;4.00;4.00;17.90;99.90;;;;;;5017332;28;10298;-62
2022/05/30 04:47:25;;;;;;;;;7.00;4.25;17.80;99.90;;;;;;5016310;28;10216;-62
2022/05/30 04:49:55;;;;;;;;;3.00;3.00;17.90;99.90;;;;;;5013183;28;10404;-61
2022/05/30 04:52:25;;;;;;;;;3.00;3.00;17.80;99.90;;;;;;5016003;28;10313;-61
2022/05/30 04:54:55;;;;;;;;;3.00;3.00;17.80;99.90;;;;;;5023545;28;10338;-60
2022/05/30 04:57:47;;;;;;;;;4.75;4.75;17.80;99.90;;;;;;5021677;28;10448;-62
2022/05/30 05:00:36;;;;;;;;;5.00;3.75;17.70;99.90;;;;;;5009153;28;10373;-58
2022/05/30 05:03:07;;;;;;;;;4.00;2.25;17.80;99.90;;;;;;4984455;28;10278;-62
2022/05/30 05:05:37;;;;;;;;;6.75;4.25;17.70;99.90;;;;;;5013431;28;10553;-61
2022/05/30 05:08:32;;;;;;;;;4.50;4.50;17.70;99.90;;;;;;5014652;28;11427;-62
2022/05/30 05:11:27;;;;;;;;;6.25;5.00;17.70;99.90;;;;;;5017040;28;10449;-61
2022/05/30 05:14:18;;;;;;;;;3.75;3.75;17.60;99.90;;;;;;5021243;28;10361;-64
2022/05/30 05:17:09;;;;;;;;;3.00;3.00;17.70;99.90;;;;;;5012204;28;11224;-59
2022/05/30 05:19:42;;;;;;;;;7.25;4.25;17.60;99.90;;;;;;5014932;28;12319;-61
2022/05/30 05:22:16;;;;;;;;;4.00;4.00;17.60;99.90;;;;;;5013643;28;10836;-61
2022/05/30 05:24:45;;;;;;;;;4.50;3.00;17.50;99.90;;;;;;5012506;28;10797;-61
2022/05/30 05:27:19;;;;;;;;;3.00;2.50;17.60;99.90;;;;;;5020840;28;10748;-60
2022/05/30 05:29:53;;;;;;;;;4.75;3.00;17.60;99.90;;;;;;4998944;28;10702;-61
2022/05/30 05:32:24;;;;;;;;;3.00;3.00;17.50;99.90;;;;;;5014769;28;10705;-60
2022/05/30 05:34:55;;;;;;;;;3.50;2.50;17.50;99.90;;;;;;5011250;28;10699;-60
2022/05/30 05:37:26;;;;;;;;;3.75;3.00;17.50;99.90;;;;;;5011934;28;10707;-59
2022/05/30 05:40:20;;;;;;;;;5.50;5.50;17.50;99.90;;;;;;5016287;28;10975;-59
2022/05/30 05:42:50;;;;;;;;;6.50;5.50;17.40;99.90;;;;;;5026698;28;11149;-60
2022/05/30 05:45:21;;;;;;;;;6.00;4.50;17.40;99.90;;;;;;4996962;28;10903;-53
2022/05/30 05:47:53;;;;;;;;;6.25;4.75;17.30;99.90;;;;;;5011821;28;10947;-51
2022/05/30 05:50:23;;;;;;;;;4.75;3.75;17.30;99.90;;;;;;5018651;28;11006;-50
2022/05/30 05:52:55;;;;;;;;;6.00;6.00;17.30;99.90;;;;;;5014112;28;10942;-51
2022/05/30 05:55:29;;;;;;;;;8.75;8.75;17.20;99.90;;;;;;5032963;28;11166;-50
2022/05/30 05:57:58;;;;;;;;;10.75;10.75;17.30;99.90;;;;;;5027346;28;11527;-50
2022/05/30 06:00:31;;;;;;;;;13.75;11.75;17.20;99.90;;;;;;5016424;28;11499;-50
2022/05/30 06:03:01;;;;;;;;;11.75;11.75;17.20;99.90;;;;;;5015610;28;11690;-50
2022/05/30 06:05:51;;;;;;;;;20.75;19.50;17.20;99.90;;;;;;5017492;28;11533;-51
2022/05/30 06:08:46;;;;;;;;;25.75;25.00;17.20;99.90;;;;;;5009560;28;11700;-49
2022/05/30 06:11:36;;;;;;;;;31.25;29.50;17.20;99.90;;;;;;5009707;28;11614;-50
2022/05/30 06:14:06;;;;;;;;;32.25;30.75;17.10;99.90;;;;;;5008522;28;11593;-50
2022/05/30 06:16:40;;;;;;;;;32.25;30.75;17.10;99.90;;;;;;5014707;28;11575;-50
2022/05/30 06:19:14;;;;;;;;;34.50;32.25;17.00;99.90;;;;;;5033398;28;11611;-50
2022/05/30 06:21:45;;;;;;;;;32.50;31.00;17.00;99.90;;;;;;5016230;28;11728;-53
2022/05/30 06:24:15;;;;;;;;;37.75;33.50;17.00;99.90;;;;;;5029436;28;11559;-49
2022/05/30 06:27:06;;;;;;;;;37.00;34.25;17.00;99.90;;;;;;5023677;28;11570;-51
2022/05/30 06:29:36;;;;;;;;;43.75;37.25;17.00;99.90;;;;;;5020806;28;11601;-48
2022/05/30 06:32:07;;;;;;;;;41.25;36.75;17.00;99.90;;;;;;5033068;28;11694;-51
2022/05/30 06:35:06;;;;;;;;;45.25;38.25;17.00;99.90;;;;;;5012735;28;11732;-51
2022/05/30 06:37:40;;;;;;;;;49.50;42.50;17.00;99.90;;;;;;5006785;28;11677;-51
2022/05/30 06:40:13;;;;;;;;;48.50;41.00;16.90;99.90;;;;;;5009031;28;11631;-50
2022/05/30 06:42:47;;;;;;;;;47.00;40.75;16.90;99.90;;;;;;5013096;28;11586;-50
2022/05/30 06:45:33;;;;;;;;;37.75;33.75;16.90;99.90;;;;;;5021271;28;11798;-52
2022/05/30 06:48:21;;;;;;;;;27.50;25.50;17.00;99.90;;;;;;5020872;28;11585;-51
2022/05/30 06:51:15;;;;;;;;;25.50;24.00;16.90;99.90;;;;;;5018976;28;11593;-51
2022/05/30 06:53:45;;;;;;;;;27.25;25.50;16.90;99.90;;;;;;5029010;28;11616;-52
2022/05/30 06:56:20;;;;;;;;;9.75;9.75;16.80;99.90;;;;;;5014734;28;11666;-52
2022/05/30 06:58:52;;;;;;;;;5.00;3.75;16.80;99.90;;;;;;5011994;28;11614;-50
2022/05/30 07:01:28;;;;;;;;;3.75;3.50;16.80;99.90;;;;;;5009070;28;11411;-52
2022/05/30 07:04:16;;;;;;;;;6.75;4.00;16.70;99.90;;;;;;5023812;28;10917;-51
2022/05/30 07:07:07;;;;;;;;;4.75;4.25;16.70;99.90;;;;;;5021855;28;10818;-49
2022/05/30 07:10:11;;;;;;;;;4.50;4.25;16.70;99.90;;;;;;4990681;28;12480;-50
2022/05/30 07:12:47;;;;;;;;;8.00;6.00;16.70;99.90;;;;;;5009562;28;10578;-49
2022/05/30 07:15:18;;;;;;;;;4.75;4.00;16.70;99.90;;;;;;4996261;28;10857;-51
2022/05/30 07:17:54;;;;;;;;;5.00;3.75;16.60;99.90;;;;;;5014124;28;10906;-50
2022/05/30 07:20:24;;;;;;;;;6.50;5.25;16.70;99.90;;;;;;5008244;28;10901;-52
2022/05/30 07:23:22;;;;;;;;;5.25;4.50;16.60;99.90;;;;;;4973474;28;11083;-51
2022/05/30 07:26:13;;;;;;;;;4.75;4.75;16.60;99.90;;;;;;5015577;28;10710;-50
2022/05/30 07:29:08;;;;;;;;;5.75;2.75;16.60;99.90;;;;;;5026164;28;10704;-49
2022/05/30 07:32:05;;;;;;;;;6.75;3.25;16.60;99.90;;;;;;5014850;28;10943;-50
2022/05/30 07:34:54;;;;;;;;;4.00;4.00;16.50;99.90;;;;;;5013838;28;10654;-49
2022/05/30 07:37:46;;;;;;;;;4.25;4.00;16.50;99.90;;;;;;5022139;28;10660;-53
2022/05/30 07:40:15;;;;;;;;;6.00;6.00;16.50;99.90;;;;;;5006390;28;10834;-51
2022/05/30 07:43:04;;;;;;;;;4.00;3.75;16.50;99.90;;;;;;5024441;28;10861;-48
2022/05/30 07:46:06;;;;;;;;;5.25;5.00;16.50;99.90;;;;;;5011497;28;10699;-52
2022/05/30 07:48:57;;;;;;;;;6.50;6.50;16.50;99.90;;;;;;5017889;28;10832;-50
2022/05/30 07:51:46;;;;;;;;;4.50;4.50;16.50;99.90;;;;;;5015116;28;10643;-50
2022/05/30 07:54:30;;;;;;;;;6.50;5.25;16.40;99.90;;;;;;5010567;28;10684;-48
2022/05/30 07:57:50;;;;;;;;;4.00;4.00;16.40;99.90;;;;;;5014419;28;10898;-52
2022/05/30 08:00:14;;;;;;;;;5.00;3.25;16.40;99.90;;;;;;5013455;28;10800;-50
2022/05/30 08:02:53;;;;;;;;;6.25;5.00;16.40;99.90;;;;;;5028397;28;10573;-52
2022/05/30 08:05:31;;;;;;;;;2.00;2.00;16.40;99.90;;;;;;5014510;28;10576;-50
2022/05/30 08:08:18;;;;;;;;;4.00;4.00;16.40;99.90;;;;;;5019754;28;10746;-49
2022/05/30 08:10:51;;;;;;;;;5.75;4.75;16.30;99.90;;;;;;5014094;28;10471;-48
2022/05/30 08:13:23;;;;;;;;;5.00;5.00;16.40;99.90;;;;;;5012742;28;10879;-49
2022/05/30 08:15:59;;;;;;;;;4.25;4.25;16.30;99.90;;;;;;5009237;28;10725;-53
2022/05/30 08:18:32;;;;;;;;;6.50;6.25;16.30;99.90;;;;;;5014799;28;10707;-50
2022/05/30 08:21:06;;;;;;;;;4.00;4.00;16.30;99.90;;;;;;5013347;28;10665;-49
2022/05/30 08:23:39;;;;;;;;;5.00;5.00;16.20;99.90;;;;;;5011122;28;11039;-50
2022/05/30 08:26:14;;;;;;;;;4.25;4.25;16.20;99.90;;;;;;5014506;28;10648;-49
2022/05/30 08:29:13;;;;;;;;;5.25;5.25;16.20;99.90;;;;;;5013739;28;10745;-50
2022/05/30 08:31:44;;;;;;;;;4.25;4.25;16.20;99.90;;;;;;5026831;28;10605;-49
2022/05/30 08:34:39;;;;;;;;;4.75;4.75;16.20;99.90;;;;;;5017636;28;10793;-51
2022/05/30 08:37:10;;;;;;;;;4.00;4.00;16.20;99.90;;;;;;5012083;28;10768;-49
2022/05/30 08:42:33;;;;;;;;;4.25;3.00;16.20;99.90;;;;;;5027563;28;10891;-50
2022/05/30 08:45:18;;;;;;;;;5.00;5.00;16.20;99.90;;;;;;5014925;28;10723;-52
2022/05/30 08:48:15;;;;;;;;;3.75;3.75;16.20;99.90;;;;;;5012749;28;10724;-50
2022/05/30 08:51:23;;;;;;;;;5.75;4.25;16.10;99.90;;;;;;5026746;28;10668;-49
2022/05/30 08:54:17;;;;;;;;;6.00;6.00;16.10;99.90;;;;;;5010411;28;10797;-52
2022/05/30 08:57:20;;;;;;;;;0.50;0.00;16.10;99.90;;;;;;5013085;28;10951;-52
2022/05/30 09:00:21;;;;;;;;;3.50;3.50;16.10;99.90;;;;;;5012128;28;10687;-51
2022/05/30 09:03:31;;;;;;;;;5.25;4.50;16.10;99.90;;;;;;5009356;28;10845;-56
2022/05/30 09:06:19;;;;;;;;;3.50;3.50;16.00;99.90;;;;;;5011217;28;10821;-50
2022/05/30 09:09:00;;;;;;;;;5.25;4.50;16.10;99.90;;;;;;5023911;28;10766;-49
2022/05/30 09:12:29;;;;;;;;;4.75;4.75;16.00;99.90;;;;;;5010311;28;10789;-51
2022/05/30 09:15:37;;;;;;;;;3.00;3.00;16.00;99.90;;;;;;5011869;28;11455;-52
2022/05/30 09:18:28;;;;;;;;;2.00;2.00;15.90;99.90;;;;;;5002939;28;10730;-51
2022/05/30 09:20:58;;;;;;;;;5.50;3.25;15.90;99.90;;;;;;5010739;28;10739;-51
2022/05/30 09:23:28;;;;;;;;;5.75;5.75;15.90;99.90;;;;;;5032458;28;10944;-51
2022/05/30 09:26:03;;;;;;;;;4.00;4.00;15.90;99.90;;;;;;5012720;28;10920;-50
2022/05/30 09:29:02;;;;;;;;;2.75;2.75;15.90;99.90;;;;;;5017154;28;10838;-52
2022/05/30 09:32:20;;;;;;;;;2.25;2.25;15.90;99.90;;;;;;4998801;28;10963;-52
2022/05/30 09:34:52;;;;;;;;;5.00;3.50;15.90;99.90;;;;;;5023126;28;10499;-51
2022/05/30 09:37:40;;;;;;;;;2.00;2.00;15.90;99.90;;;;;;5021459;28;10819;-51
2022/05/30 09:40:41;;;;;;;;;11.00;4.00;15.90;99.90;;;;;;5007859;28;10632;-50
2022/05/30 09:43:42;;;;;;;;;3.75;3.75;15.80;99.90;;;;;;5010199;28;10641;-50
2022/05/30 09:46:39;;;;;;;;;4.00;3.00;15.80;99.90;;;;;;5011686;28;10785;-52
2022/05/30 09:49:19;;;;;;;;;4.25;4.25;15.80;99.90;;;;;;5013155;28;10913;-49
2022/05/30 09:52:00;;;;;;;;;4.00;4.00;15.70;99.90;;;;;;5015768;28;11014;-51
2022/05/30 09:54:39;;;;;;;;;3.25;2.00;15.70;99.90;;;;;;5016302;28;10901;-48
2022/05/30 09:57:38;;;;;;;;;3.75;2.25;15.70;99.90;;;;;;5012164;28;10854;-52
2022/05/30 10:00:19;;;;;;;;;3.00;3.00;15.70;99.90;;;;;;5015663;28;10860;-50
2022/05/30 10:03:11;;;;;;;;;7.50;7.50;15.70;99.90;;;;;;5015736;28;10856;-49
2022/05/30 10:05:46;;;;;;;;;11.25;9.00;15.70;99.90;;;;;;5013559;28;11548;-48
2022/05/30 10:08:27;;;;;;;;;0.00;0.00;15.80;99.90;;;;;;5015664;28;11307;-54
2022/05/30 10:11:04;;;;;;;;;3.00;3.00;15.60;99.90;;;;;;5016747;28;10865;-50
2022/05/30 10:13:42;;;;;;;;;2.50;2.50;15.60;99.90;;;;;;5015594;28;10844;-48
2022/05/30 10:16:36;;;;;;;;;4.00;2.25;15.60;99.90;;;;;;5013718;28;10972;-52
2022/05/30 10:19:09;;;;;;;;;2.00;2.00;15.50;99.90;;;;;;5004513;28;10682;-50
2022/05/30 10:28:52;;;;;;;;;2.25;2.25;15.30;99.90;;;;;;5018328;28;10906;-50
2022/05/30 10:31:51;;;;;;;;;3.00;3.00;15.30;99.90;;;;;;5018015;28;10963;-47
2022/05/30 10:34:29;;;;;;;;;5.50;3.75;15.40;99.90;;;;;;5010484;28;11094;-50
2022/05/30 10:37:32;;;;;;;;;3.00;2.00;15.40;99.90;;;;;;5012868;28;11136;-52
2022/05/30 10:40:17;;;;;;;;;4.00;2.50;15.30;99.90;;;;;;5030055;28;11094;-50
2022/05/30 10:43:02;;;;;;;;;2.75;2.75;15.30;99.90;;;;;;5013101;28;11124;-51
2022/05/30 10:45:41;;;;;;;;;5.00;3.25;15.30;99.90;;;;;;5013341;28;11196;-52
2022/05/30 10:48:24;;;;;;;;;5.25;3.75;15.30;99.90;;;;;;5031295;28;11143;-47
2022/05/30 10:51:22;;;;;;;;;2.50;2.50;15.30;99.90;;;;;;5015149;28;11143;-51
2022/05/30 10:54:18;;;;;;;;;3.25;3.25;15.30;99.90;;;;;;5016754;28;11173;-51
2022/05/30 10:57:32;;;;;;;;;3.25;2.00;15.30;99.90;;;;;;5027681;28;11083;-51
2022/05/30 11:00:11;;;;;;;;;1.00;1.00;15.20;99.90;;;;;;4999274;28;11272;-48
2022/05/30 11:03:00;;;;;;;;;3.00;3.00;15.20;99.90;;;;;;5011807;28;12400;-48
2022/05/30 11:05:38;;;;;;;;;3.75;3.75;15.20;99.90;;;;;;5028827;28;11474;-47
2022/05/30 11:08:32;;;;;;;;;0.50;0.50;15.20;99.90;;;;;;5008998;28;11362;-50
2022/05/30 11:11:16;;;;;;;;;3.75;3.75;15.10;99.90;;;;;;5013009;28;11042;-50
2022/05/30 11:14:03;;;;;;;;;1.00;1.00;15.00;99.90;;;;;;5011047;28;11969;-51
2022/05/30 11:16:59;;;;;;;;;2.75;2.75;15.10;99.90;;;;;;5020419;28;11213;-50
2022/05/30 11:20:05;;;;;;;;;4.50;3.50;15.10;99.90;;;;;;5021526;28;11036;-49
2022/05/30 11:22:52;;;;;;;;;4.00;4.00;15.10;99.90;;;;;;5016409;28;11019;-50
2022/05/30 11:25:48;;;;;;;;;4.00;4.00;15.00;99.90;;;;;;5014921;28;11447;-51
2022/05/30 11:28:19;;;;;;;;;3.25;1.50;15.00;99.90;;;;;;5017201;28;11235;-51
2022/05/30 11:31:24;;;;;;;;;3.50;3.50;15.00;99.90;;;;;;5014637;28;11519;-49
2022/05/30 11:34:10;;;;;;;;;3.00;3.00;15.00;99.90;;;;;;5012403;28;12247;-51
2022/05/30 11:37:08;;;;;;;;;3.75;3.75;15.00;99.90;;;;;;5013946;28;11510;-48
2022/05/30 11:40:12;;;;;;;;;4.00;4.00;15.00;99.90;;;;;;5008102;28;11612;-53
2022/05/30 11:43:12;;;;;;;;;3.00;3.00;14.90;99.90;;;;;;5013623;28;11524;-51
2022/05/30 11:45:53;;;;;;;;;3.00;3.00;14.90;99.90;;;;;;5005722;28;11438;-50
2022/05/30 11:48:26;;;;;;;;;2.00;2.00;14.90;99.90;;;;;;5012957;28;11163;-50
2022/05/30 11:51:11;;;;;;;;;2.00;2.00;14.90;99.90;;;;;;5011697;28;11454;-52
2022/05/30 11:54:02;;;;;;;;;2.00;2.00;14.80;99.90;;;;;;5016249;28;11477;-47
2022/05/30 11:57:18;;;;;;;;;2.75;2.75;14.80;99.90;;;;;;5015144;28;11542;-52
2022/05/30 12:00:13;;;;;;;;;5.25;2.25;14.80;99.90;;;;;;4994815;28;11467;-51
2022/05/30 12:02:59;;;;;;;;;3.00;2.50;14.80;99.90;;;;;;5013252;28;11501;-52
2022/05/30 12:05:50;;;;;;;;;2.00;2.00;14.90;99.90;;;;;;5015113;28;11534;-49
2022/05/30 12:08:44;;;;;;;;;2.50;2.50;14.80;99.90;;;;;;5013720;28;12556;-48
2022/05/30 12:11:38;;;;;;;;;2.00;2.00;14.80;99.90;;;;;;5015483;28;11707;-51
2022/05/30 12:14:36;;;;;;;;;5.25;4.00;14.80;99.90;;;;;;5010670;28;11534;-48
2022/05/30 12:17:32;;;;;;;;;2.00;2.00;14.70;99.90;;;;;;5014528;28;12137;-52
2022/05/30 12:23:49;;;;;;;;;2.00;2.00;14.70;99.90;;;;;;4997845;28;11431;-48
2022/05/30 12:26:54;;;;;;;;;2.50;2.25;14.70;99.90;;;;;;5017387;28;11463;-49
2022/05/30 12:29:38;;;;;;;;;2.50;2.50;14.70;99.90;;;;;;5011735;28;11513;-51
2022/05/30 12:32:16;;;;;;;;;2.00;2.00;14.60;99.90;;;;;;5011627;28;12191;-50
2022/05/30 12:35:00;;;;;;;;;2.00;2.00;14.60;99.90;;;;;;5015381;28;11493;-51
2022/05/30 12:37:44;;;;;;;;;2.50;2.50;14.60;99.90;;;;;;5013089;28;11536;-50
2022/05/30 12:40:26;;;;;;;;;1.00;1.00;14.60;99.90;;;;;;5011960;28;11462;-50
2022/05/30 12:43:23;;;;;;;;;3.25;2.25;14.60;99.90;;;;;;5015735;28;11492;-47
2022/05/30 12:45:56;;;;;;;;;3.00;3.00;14.50;99.90;;;;;;5007765;28;11512;-48
2022/05/30 12:48:57;;;;;;;;;1.25;1.25;14.50;99.90;;;;;;5014150;28;11520;-48
2022/05/30 12:51:59;;;;;;;;;2.00;2.00;14.50;99.90;;;;;;5012940;28;12213;-47
2022/05/30 12:54:57;;;;;;;;;4.75;4.75;14.50;99.90;;;;;;5031823;28;11610;-46
2022/05/30 12:57:40;;;;;;;;;3.75;3.00;14.50;99.90;;;;;;5018426;28;11501;-51
2022/05/30 13:00:22;;;;;;;;;2.75;1.75;14.50;99.90;;;;;;5017055;28;12227;-51
2022/05/30 13:02:57;;;;;;;;;4.00;2.25;14.50;99.90;;;;;;5018235;28;11505;-49
2022/05/30 13:05:36;;;;;;;;;4.25;2.75;14.40;99.90;;;;;;5016531;28;11477;-48
2022/05/30 13:08:42;;;;;;;;;4.00;4.00;14.40;99.90;;;;;;5020286;28;11457;-52
2022/05/30 13:11:21;;;;;;;;;8.50;4.25;14.40;99.90;;;;;;5014656;28;11518;-48
2022/05/30 13:13:56;;;;;;;;;3.25;3.00;14.30;99.90;;;;;;5019681;28;11498;-49
2022/05/30 13:16:39;;;;;;;;;5.00;4.00;14.30;99.90;;;;;;5015767;28;11498;-50
2022/05/30 13:19:13;;;;;;;;;3.75;3.75;14.30;99.90;;;;;;5018515;28;12269;-51
2022/05/30 13:21:49;;;;;;;;;2.50;2.50;14.30;99.90;;;;;;5015143;28;11566;-52
2022/05/30 13:24:34;;;;;;;;;1.50;1.50;14.30;99.90;;;;;;5021555;28;11122;-51
2022/05/30 13:27:04;;;;;;;;;3.00;2.00;14.30;99.90;;;;;;5015933;28;12234;-53
2022/05/30 13:29:42;;;;;;;;;2.25;2.25;14.30;99.90;;;;;;5017008;28;11547;-51
2022/05/30 13:32:19;;;;;;;;;3.50;2.50;14.30;99.90;;;;;;5015735;28;11489;-50
2022/05/30 13:34:58;;;;;;;;;3.00;3.00;14.30;99.90;;;;;;5017921;28;11680;-51
2022/05/30 13:37:33;;;;;;;;;2.25;2.25;14.30;99.90;;;;;;5016886;28;11486;-48
2022/05/30 13:40:09;;;;;;;;;3.25;3.00;14.30;99.90;;;;;;5015392;28;11593;-47
2022/05/30 13:43:02;;;;;;;;;4.00;4.00;14.30;99.90;;;;;;5016385;28;11486;-50
2022/05/30 13:45:51;;;;;;;;;3.00;3.00;14.30;99.90;;;;;;5010112;28;11651;-51
2022/05/30 13:48:21;;;;;;;;;3.25;3.25;14.30;99.90;;;;;;5019454;28;11523;-52
2022/05/30 13:51:04;;;;;;;;;3.25;2.50;14.30;99.90;;;;;;5016297;28;11634;-52
2022/05/30 13:53:41;;;;;;;;;6.75;3.50;14.30;99.90;;;;;;5017495;28;11495;-46
2022/05/30 13:56:19;;;;;;;;;2.75;2.75;14.30;99.90;;;;;;5012844;28;11477;-51
2022/05/30 13:59:00;;;;;;;;;2.25;2.25;14.20;99.90;;;;;;5015306;28;11449;-50
2022/05/30 14:01:38;;;;;;;;;5.50;3.00;14.20;99.90;;;;;;5014010;28;11527;-48
2022/05/30 14:04:44;;;;;;;;;3.00;3.00;14.30;99.90;;;;;;5020751;28;11526;-51
2022/05/30 14:07:34;;;;;;;;;3.00;3.00;14.30;99.90;;;;;;5011769;28;12229;-51
2022/05/30 14:10:11;;;;;;;;;3.00;3.00;14.30;99.90;;;;;;5014635;28;11488;-49
2022/05/30 14:13:01;;;;;;;;;3.50;3.00;14.30;99.90;;;;;;5015984;28;11604;-50
2022/05/30 14:15:33;;;;;;;;;2.50;2.50;14.30;99.90;;;;;;5016138;28;11472;-52
2022/05/30 14:18:25;;;;;;;;;4.00;4.00;14.30;99.90;;;;;;5013275;28;13090;-51
2022/05/30 14:20:57;;;;;;;;;4.00;4.00;14.30;99.90;;;;;;5019893;28;12329;-51
2022/05/30 14:23:28;;;;;;;;;4.00;3.25;14.40;99.90;;;;;;5018814;28;11493;-53
2022/05/30 14:25:58;;;;;;;;;2.75;2.75;14.40;99.90;;;;;;5014407;28;11504;-51